Time;durP1;ratioP1;P1;durP2;ratioP2;P2;SDS_P1;SDS_P2;PMS_P1;PMS_P2;Temp;Humidity;BMP_temperature;BMP_pressure;BME280_temperature;BME280_humidity;BME280_pressure;Samples;Min_cycle;Max_cycle;Signal;HPM_P1;HPM_P2
2022/04/15 00:02:01;;;;;;;;;;;19.30;41.10;;;;;;5081368;28;19967;-51
2022/04/15 00:04:29;;;;;;;;;;;19.20;41.00;;;;;;5066279;28;19933;-56
2022/04/15 00:06:57;;;;;;;;;;;19.30;41.10;;;;;;5065768;28;20382;-57
2022/04/15 00:09:23;;;;;;;;;;;19.20;40.90;;;;;;5085202;28;19939;-51
2022/04/15 00:11:51;;;;;;;;;;;19.20;40.90;;;;;;5082216;28;19925;-53
2022/04/15 00:14:18;;;;;;;;;;;19.20;41.00;;;;;;5067253;28;19932;-57
2022/04/15 00:16:45;;;;;;;;;;;19.20;41.00;;;;;;5067501;28;20347;-55
2022/04/15 00:19:12;;;;;;;;;;;19.20;41.00;;;;;;5085407;28;19920;-53
2022/04/15 00:21:39;;;;;;;;;;;19.20;41.00;;;;;;5063470;28;19928;-51
2022/04/15 00:24:07;;;;;;;;;;;19.20;41.00;;;;;;5067442;28;19920;-56
2022/04/15 00:26:34;;;;;;;;;;;19.20;40.90;;;;;;5070542;28;19927;-52
2022/04/15 00:29:03;;;;;;;;;;;19.20;41.00;;;;;;5083764;28;19940;-55
2022/04/15 00:31:30;;;;;;;;;;;19.20;41.00;;;;;;5067566;28;20011;-57
2022/04/15 00:33:56;;;;;;;;;;;19.20;41.00;;;;;;5065942;28;19927;-56
2022/04/15 00:36:23;;;;;;;;;;;19.30;41.10;;;;;;5071726;28;19925;-57
2022/04/15 00:38:51;;;;;;;;;;;19.30;41.10;;;;;;5081438;28;19920;-54
2022/04/15 00:41:19;;;;;;;;;;;19.30;41.10;;;;;;5068246;28;19931;-56
2022/04/15 00:43:46;;;;;;;;;;;19.30;41.10;;;;;;5083732;28;20019;-54
2022/04/15 00:46:13;;;;;;;;;;;19.30;41.00;;;;;;5062009;28;19933;-53
2022/04/15 00:48:40;;;;;;;;;;;19.30;41.10;;;;;;5062943;28;19921;-52
2022/04/15 00:51:07;;;;;;;;;;;19.30;41.10;;;;;;5088538;28;19927;-52
2022/04/15 00:53:34;;;;;;;;;;;19.20;41.00;;;;;;5069288;28;19925;-51
2022/04/15 00:56:03;;;;;;;;;;;19.30;41.00;;;;;;5064880;28;20392;-54
2022/04/15 00:58:32;;;;;;;;;;;19.30;41.00;;;;;;5062642;28;20035;-53
2022/04/15 01:00:59;;;;;;;;;;;19.30;41.10;;;;;;5088016;28;19920;-52
2022/04/15 01:03:26;;;;;;;;;;;19.30;41.10;;;;;;5085473;28;20340;-57
2022/04/15 01:05:58;;;;;;;;;;;19.30;41.10;;;;;;5070862;28;19931;-52
2022/04/15 01:08:27;;;;;;;;;;;19.30;41.10;;;;;;5070556;28;20414;-52
2022/04/15 01:10:54;;;;;;;;;;;19.30;41.10;;;;;;5089511;28;20235;-53
2022/04/15 01:13:21;;;;;;;;;;;19.30;41.10;;;;;;5070888;28;19921;-53
2022/04/15 01:15:49;;;;;;;;;;;19.30;41.10;;;;;;5072396;28;20001;-49
2022/04/15 01:18:17;;;;;;;;;;;19.30;41.10;;;;;;5090621;28;19927;-49
2022/04/15 01:20:43;;;;;;;;;;;19.30;41.00;;;;;;5074493;28;20280;-57
2022/04/15 01:23:12;;;;;;;;;;;19.30;41.00;;;;;;5065055;28;19956;-55
2022/04/15 01:25:38;;;;;;;;;;;19.30;41.00;;;;;;5084318;28;19921;-53
2022/04/15 01:28:05;;;;;;;;;;;19.30;41.00;;;;;;5069233;28;20029;-58
2022/04/15 01:30:32;;;;;;;;;;;19.30;41.00;;;;;;5091531;28;19924;-51
2022/04/15 01:32:59;;;;;;;;;;;19.30;41.00;;;;;;5068767;28;19939;-50
2022/04/15 01:35:26;;;;;;;;;;;19.30;41.00;;;;;;5064181;28;19927;-49
2022/04/15 01:37:53;;;;;;;;;;;19.30;40.90;;;;;;5090982;28;19951;-51
2022/04/15 01:40:21;;;;;;;;;;;19.30;41.00;;;;;;5069198;28;19933;-51
2022/04/15 01:42:48;;;;;;;;;;;19.30;41.00;;;;;;5068988;28;19985;-51
2022/04/15 01:45:15;;;;;;;;;;;19.30;41.00;;;;;;5067377;28;20315;-49
2022/04/15 01:47:41;;;;;;;;;;;19.30;41.00;;;;;;5085564;28;19968;-48
2022/04/15 01:50:08;;;;;;;;;;;19.30;40.90;;;;;;5071094;28;19935;-58
2022/04/15 01:52:35;;;;;;;;;;;19.30;40.90;;;;;;5070174;28;19920;-56
2022/04/15 01:55:02;;;;;;;;;;;19.30;40.90;;;;;;5073253;28;20365;-56
2022/04/15 01:57:30;;;;;;;;;;;19.30;40.90;;;;;;5071662;28;19970;-58
2022/04/15 01:59:57;;;;;;;;;;;19.30;40.90;;;;;;5063926;28;19920;-52
2022/04/15 02:02:24;;;;;;;;;;;19.30;40.90;;;;;;5069775;28;20373;-56
2022/04/15 02:04:50;;;;;;;;;;;19.30;40.90;;;;;;5069486;28;19976;-52
2022/04/15 02:07:17;;;;;;;;;;;19.30;40.90;;;;;;5071128;28;20001;-52
2022/04/15 02:09:44;;;;;;;;;;;19.30;40.90;;;;;;5069165;28;19921;-51
2022/04/15 02:12:11;;;;;;;;;;;19.30;40.90;;;;;;5064522;28;19963;-48
2022/04/15 02:14:39;;;;;;;;;;;19.20;40.80;;;;;;5067754;28;19962;-51
2022/04/15 02:17:06;;;;;;;;;;;19.20;40.80;;;;;;5088106;28;19928;-50
2022/04/15 02:19:33;;;;;;;;;;;19.30;40.90;;;;;;5072737;28;20003;-52
2022/04/15 02:21:59;;;;;;;;;;;19.20;40.80;;;;;;5070984;28;20277;-50
2022/04/15 02:24:26;;;;;;;;;;;19.20;40.90;;;;;;5065544;28;19936;-52
2022/04/15 02:26:53;;;;;;;;;;;19.30;40.90;;;;;;5084720;28;19966;-53
2022/04/15 02:29:19;;;;;;;;;;;19.20;40.90;;;;;;5066771;28;19924;-50
2022/04/15 02:31:47;;;;;;;;;;;19.20;40.80;;;;;;5066848;28;20350;-58
2022/04/15 02:34:14;;;;;;;;;;;19.20;40.90;;;;;;5071614;28;19966;-51
2022/04/15 02:36:41;;;;;;;;;;;19.20;40.90;;;;;;5063397;28;20369;-53
2022/04/15 02:39:10;;;;;;;;;;;19.20;40.90;;;;;;5060606;28;19955;-55
2022/04/15 02:41:37;;;;;;;;;;;19.30;40.90;;;;;;5085440;28;19921;-51
2022/04/15 02:44:04;;;;;;;;;;;19.20;40.90;;;;;;5085490;28;20051;-56
2022/04/15 02:46:30;;;;;;;;;;;19.30;41.00;;;;;;5067635;28;19927;-50
2022/04/15 02:48:59;;;;;;;;;;;19.30;41.00;;;;;;5067900;28;19932;-48
2022/04/15 02:51:25;;;;;;;;;;;19.30;40.90;;;;;;5061761;28;19921;-54
2022/04/15 02:53:52;;;;;;;;;;;19.30;41.00;;;;;;5067645;28;19921;-58
2022/04/15 02:56:19;;;;;;;;;;;19.30;41.00;;;;;;5067242;28;20015;-51
2022/04/15 02:58:46;;;;;;;;;;;19.30;40.90;;;;;;5085058;28;19988;-53
2022/04/15 03:01:13;;;;;;;;;;;19.30;40.90;;;;;;5065618;28;19927;-53
2022/04/15 03:03:40;;;;;;;;;;;19.30;40.90;;;;;;5063563;28;20269;-55
2022/04/15 03:06:08;;;;;;;;;;;19.30;41.00;;;;;;5071991;28;19966;-58
2022/04/15 03:08:34;;;;;;;;;;;19.30;41.00;;;;;;5083793;28;19960;-59
2022/04/15 03:11:01;;;;;;;;;;;19.30;41.00;;;;;;5085034;28;19924;-51
2022/04/15 03:13:28;;;;;;;;;;;19.30;41.00;;;;;;5071467;28;19955;-53
2022/04/15 03:15:55;;;;;;;;;;;19.20;41.00;;;;;;5065775;28;19928;-56
2022/04/15 03:18:21;;;;;;;;;;;19.20;40.90;;;;;;5070150;28;19928;-50
2022/04/15 03:20:48;;;;;;;;;;;19.20;41.00;;;;;;5068144;28;19981;-51
2022/04/15 03:23:16;;;;;;;;;;;19.20;41.00;;;;;;5085239;28;19962;-52
2022/04/15 03:25:43;;;;;;;;;;;19.20;40.90;;;;;;5084329;28;19932;-54
2022/04/15 03:28:10;;;;;;;;;;;19.20;41.00;;;;;;5081795;28;20023;-56
2022/04/15 03:30:37;;;;;;;;;;;19.20;41.00;;;;;;5066013;28;19933;-55
2022/04/15 03:33:03;;;;;;;;;;;19.20;41.00;;;;;;5062508;28;20361;-55
2022/04/15 03:35:30;;;;;;;;;;;19.20;41.00;;;;;;5071620;28;20092;-54
2022/04/15 03:37:57;;;;;;;;;;;19.20;41.00;;;;;;5064443;28;19928;-55
2022/04/15 03:40:25;;;;;;;;;;;19.20;41.00;;;;;;5065532;28;19921;-56
2022/04/15 03:42:53;;;;;;;;;;;19.20;41.00;;;;;;5068177;28;20023;-53
2022/04/15 03:45:22;;;;;;;;;;;19.20;41.00;;;;;;5067272;28;19968;-51
2022/04/15 03:47:49;;;;;;;;;;;19.20;41.00;;;;;;5062123;28;20011;-53
2022/04/15 03:50:16;;;;;;;;;;;19.20;41.00;;;;;;5067822;28;19921;-50
2022/04/15 03:52:45;;;;;;;;;;;19.20;41.10;;;;;;5067519;28;20258;-49
2022/04/15 03:55:13;;;;;;;;;;;19.20;41.00;;;;;;5063240;28;19989;-59
2022/04/15 03:57:41;;;;;;;;;;;19.20;41.10;;;;;;5064054;28;19927;-55
2022/04/15 04:00:09;;;;;;;;;;;19.20;41.10;;;;;;5066916;28;19939;-57
2022/04/15 04:02:35;;;;;;;;;;;19.20;41.00;;;;;;5075793;28;20018;-52
2022/04/15 04:05:02;;;;;;;;;;;19.20;41.00;;;;;;5066453;28;19942;-54
2022/04/15 04:07:28;;;;;;;;;;;19.20;41.00;;;;;;5065725;28;20335;-57
2022/04/15 04:09:55;;;;;;;;;;;19.20;41.10;;;;;;5084888;28;19924;-57
2022/04/15 04:12:22;;;;;;;;;;;19.20;41.20;;;;;;5068268;28;19931;-52
2022/04/15 04:14:50;;;;;;;;;;;19.20;41.10;;;;;;5067370;28;19920;-55
2022/04/15 04:17:17;;;;;;;;;;;19.20;41.10;;;;;;5065255;28;19942;-54
2022/04/15 04:19:43;;;;;;;;;;;19.20;41.10;;;;;;5067947;28;19925;-54
2022/04/15 04:22:10;;;;;;;;;;;19.20;41.10;;;;;;5066159;28;19932;-57
2022/04/15 04:24:37;;;;;;;;;;;19.20;41.20;;;;;;5067120;28;19994;-54
2022/04/15 04:27:04;;;;;;;;;;;19.20;41.20;;;;;;5067575;28;19948;-54
2022/04/15 04:29:30;;;;;;;;;;;19.20;41.20;;;;;;5065120;28;20265;-53
2022/04/15 04:31:58;;;;;;;;;;;19.20;41.20;;;;;;5068376;28;19975;-48
2022/04/15 04:34:25;;;;;;;;;;;19.20;41.20;;;;;;5083634;28;19966;-58
2022/04/15 04:36:52;;;;;;;;;;;19.20;41.20;;;;;;5067094;28;19920;-52
2022/04/15 04:39:19;;;;;;;;;;;19.20;41.20;;;;;;5066802;28;20015;-55
2022/04/15 04:41:46;;;;;;;;;;;19.20;41.20;;;;;;5066701;28;19992;-49
2022/04/15 04:44:13;;;;;;;;;;;19.20;41.20;;;;;;5084386;28;19989;-49
2022/04/15 04:46:40;;;;;;;;;;;19.20;41.20;;;;;;5067797;28;19920;-55
2022/04/15 04:49:07;;;;;;;;;;;19.20;41.30;;;;;;5067710;28;20397;-56
2022/04/15 04:51:34;;;;;;;;;;;19.20;41.30;;;;;;5067090;28;19956;-54
2022/04/15 04:54:01;;;;;;;;;;;19.20;41.30;;;;;;5067197;28;20409;-51
2022/04/15 04:56:29;;;;;;;;;;;19.20;41.30;;;;;;5066059;28;19920;-52
2022/04/15 04:58:56;;;;;;;;;;;19.20;41.30;;;;;;5084605;28;19969;-51
2022/04/15 05:01:22;;;;;;;;;;;19.20;41.40;;;;;;5066670;28;19942;-52
2022/04/15 05:03:49;;;;;;;;;;;19.20;41.30;;;;;;5067783;28;19978;-48
2022/04/15 05:06:17;;;;;;;;;;;19.20;41.40;;;;;;5080144;28;19932;-52
2022/04/15 05:08:44;;;;;;;;;;;19.20;41.40;;;;;;5068915;28;20365;-50
2022/04/15 05:11:10;;;;;;;;;;;19.20;41.40;;;;;;5069510;28;20452;-57
2022/04/15 05:13:37;;;;;;;;;;;19.20;41.40;;;;;;5079104;28;19986;-52
2022/04/15 05:16:04;;;;;;;;;;;19.20;41.40;;;;;;5068520;28;19970;-55
2022/04/15 05:18:31;;;;;;;;;;;19.10;41.50;;;;;;5078997;28;19927;-50
2022/04/15 05:20:57;;;;;;;;;;;19.20;41.50;;;;;;5065484;28;19921;-49
2022/04/15 05:23:25;;;;;;;;;;;19.20;41.60;;;;;;5068060;28;20346;-50
2022/04/15 05:25:52;;;;;;;;;;;19.20;41.50;;;;;;5066709;28;20015;-52
2022/04/15 05:28:19;;;;;;;;;;;19.20;41.60;;;;;;5068579;28;20014;-48
2022/04/15 05:30:45;;;;;;;;;;;19.20;41.60;;;;;;5081512;28;19999;-48
2022/04/15 05:33:12;;;;;;;;;;;19.10;41.50;;;;;;5068741;28;20015;-49
2022/04/15 05:35:39;;;;;;;;;;;19.10;41.60;;;;;;5066576;28;19921;-51
2022/04/15 05:38:07;;;;;;;;;;;19.10;41.60;;;;;;5087836;28;20164;-51
2022/04/15 05:40:35;;;;;;;;;;;19.10;41.60;;;;;;5083067;28;19956;-55
2022/04/15 05:43:02;;;;;;;;;;;19.10;41.60;;;;;;5067903;28;19970;-57
2022/04/15 05:45:28;;;;;;;;;;;19.10;41.60;;;;;;5072727;28;19980;-51
2022/04/15 05:47:57;;;;;;;;;;;19.10;41.70;;;;;;5071949;28;19925;-54
2022/04/15 05:50:24;;;;;;;;;;;19.10;41.70;;;;;;5070154;28;19974;-49
2022/04/15 05:52:50;;;;;;;;;;;19.10;41.70;;;;;;5072948;28;19927;-53
2022/04/15 05:55:17;;;;;;;;;;;19.10;41.80;;;;;;5071896;28;20373;-51
2022/04/15 05:57:45;;;;;;;;;;;19.10;41.80;;;;;;5070525;28;19920;-54
2022/04/15 06:00:12;;;;;;;;;;;19.10;41.90;;;;;;5067448;28;20340;-49
2022/04/15 06:02:39;;;;;;;;;;;19.10;41.80;;;;;;5067172;28;19921;-49
2022/04/15 06:05:06;;;;;;;;;;;19.10;41.90;;;;;;5071688;28;19920;-48
2022/04/15 06:07:33;;;;;;;;;;;19.10;41.90;;;;;;5071671;28;19975;-52
2022/04/15 06:10:00;;;;;;;;;;;19.10;42.00;;;;;;5071739;28;19927;-55
2022/04/15 06:12:54;;;;;;;;;;;19.10;42.10;;;;;;5084761;28;19920;-53
2022/04/15 06:15:21;;;;;;;;;;;19.10;42.00;;;;;;5070652;28;19920;-49
2022/04/15 06:17:48;;;;;;;;;;;19.10;42.10;;;;;;5087218;28;19943;-52
2022/04/15 06:20:15;;;;;;;;;;;19.00;42.00;;;;;;5071344;28;20229;-54
2022/04/15 06:22:42;;;;;;;;;;;19.00;42.00;;;;;;5066027;28;19925;-57
2022/04/15 06:25:08;;;;;;;;;;;19.00;42.00;;;;;;5070698;28;19920;-55
2022/04/15 06:27:35;;;;;;;;;;;19.00;42.00;;;;;;5070233;28;19966;-57
2022/04/15 06:30:02;;;;;;;;;;;19.00;42.00;;;;;;5065035;28;19958;-53
2022/04/15 06:32:30;;;;;;;;;;;19.00;42.00;;;;;;5071386;28;20377;-53
2022/04/15 06:34:57;;;;;;;;;;;19.00;42.00;;;;;;5066673;28;19921;-55
2022/04/15 06:37:23;;;;;;;;;;;19.00;42.10;;;;;;5083710;28;19974;-51
2022/04/15 06:39:51;;;;;;;;;;;19.00;42.10;;;;;;5068418;28;20330;-53
2022/04/15 06:42:20;;;;;;;;;;;19.00;42.10;;;;;;5070137;28;19920;-53
2022/04/15 06:44:47;;;;;;;;;;;19.00;42.10;;;;;;5069056;28;20034;-51
2022/04/15 06:47:14;;;;;;;;;;;19.00;42.20;;;;;;5070472;28;19928;-53
2022/04/15 06:49:42;;;;;;;;;;;19.00;42.30;;;;;;5065162;28;19931;-53
2022/04/15 06:52:09;;;;;;;;;;;19.00;42.20;;;;;;5065823;28;19931;-52
2022/04/15 06:54:35;;;;;;;;;;;19.00;42.20;;;;;;5069457;28;19954;-54
2022/04/15 06:57:02;;;;;;;;;;;19.00;42.30;;;;;;5061036;28;19924;-56
2022/04/15 06:59:29;;;;;;;;;;;19.00;42.30;;;;;;5067518;28;19920;-51
2022/04/15 07:01:56;;;;;;;;;;;18.90;42.30;;;;;;5068113;28;19932;-48
2022/04/15 07:04:23;;;;;;;;;;;18.90;42.20;;;;;;5063118;28;19929;-52
2022/04/15 07:06:51;;;;;;;;;;;19.00;42.40;;;;;;5065468;28;20007;-55
2022/04/15 07:09:18;;;;;;;;;;;19.00;42.40;;;;;;5069971;28;19924;-53
2022/04/15 07:11:46;;;;;;;;;;;18.90;42.30;;;;;;5062433;28;20378;-55
2022/04/15 07:14:12;;;;;;;;;;;18.90;42.30;;;;;;5069538;28;19920;-54
2022/04/15 07:16:39;;;;;;;;;;;19.00;42.50;;;;;;5052510;28;20267;-54
2022/04/15 07:19:07;;;;;;;;;;;18.90;42.40;;;;;;5064295;28;20280;-53
2022/04/15 07:21:34;;;;;;;;;;;18.90;42.90;;;;;;5066841;28;19920;-56
2022/04/15 07:24:02;;;;;;;;;;;18.90;42.40;;;;;;5086069;28;19920;-54
2022/04/15 07:26:29;;;;;;;;;;;18.90;42.40;;;;;;5088932;28;20510;-52
2022/04/15 07:28:56;;;;;;;;;;;18.90;42.40;;;;;;5064594;28;19948;-52
2022/04/15 07:31:23;;;;;;;;;;;18.90;42.50;;;;;;5063905;28;19975;-54
2022/04/15 07:33:49;;;;;;;;;;;18.90;42.40;;;;;;5054662;28;20036;-52
2022/04/15 07:39:02;;;;;;;;;;;19.00;42.40;;;;;;5083953;28;20273;-52
2022/04/15 07:41:32;;;;;;;;;;;19.00;42.30;;;;;;5065281;28;19920;-56
2022/04/15 07:43:58;;;;;;;;;;;19.00;42.30;;;;;;5083732;28;19960;-51
2022/04/15 07:46:25;;;;;;;;;;;19.00;42.20;;;;;;5064987;28;19936;-59
2022/04/15 07:48:52;;;;;;;;;;;19.00;42.80;;;;;;5084866;28;20249;-54
2022/04/15 07:51:18;;;;;;;;;;;19.00;42.10;;;;;;5068739;28;19963;-54
2022/04/15 07:53:45;;;;;;;;;;;19.10;42.20;;;;;;5068916;28;19953;-52
2022/04/15 07:56:13;;;;;;;;;;;19.10;42.20;;;;;;5084559;28;19920;-54
2022/04/15 07:58:40;;;;;;;;;;;19.20;42.20;;;;;;5086270;28;19947;-54
2022/04/15 08:01:07;;;;;;;;;;;19.20;42.20;;;;;;5069608;28;19921;-50
2022/04/15 08:03:34;;;;;;;;;;;19.20;42.10;;;;;;5068054;28;19931;-56
2022/04/15 08:06:01;;;;;;;;;;;19.20;42.10;;;;;;5090512;28;20283;-52
2022/04/15 08:08:28;;;;;;;;;;;19.20;42.10;;;;;;5079521;28;19920;-52
2022/04/15 08:10:55;;;;;;;;;;;19.20;42.10;;;;;;5067064;28;19982;-54
2022/04/15 08:13:23;;;;;;;;;;;19.30;42.20;;;;;;5071012;28;19938;-58
2022/04/15 08:15:50;;;;;;;;;;;19.20;42.10;;;;;;5087957;28;19920;-54
2022/04/15 08:18:17;;;;;;;;;;;19.20;42.20;;;;;;5069170;28;19920;-53
2022/04/15 08:20:44;;;;;;;;;;;19.30;42.30;;;;;;5084102;28;19927;-53
2022/04/15 08:23:10;;;;;;;;;;;19.30;42.20;;;;;;5069100;28;19982;-48
2022/04/15 08:25:37;;;;;;;;;;;19.30;42.90;;;;;;5069520;28;19987;-49
2022/04/15 08:28:04;;;;;;;;;;;19.30;42.30;;;;;;5069422;28;20254;-49
2022/04/15 08:30:33;;;;;;;;;;;19.30;42.30;;;;;;5084675;28;19981;-52
2022/04/15 08:33:00;;;;;;;;;;;19.30;42.20;;;;;;5087049;28;19946;-49
2022/04/15 08:35:27;;;;;;;;;;;19.30;42.30;;;;;;5070430;28;19920;-54
2022/04/15 08:37:54;;;;;;;;;;;19.30;42.20;;;;;;5067556;28;19955;-49
2022/04/15 08:40:20;;;;;;;;;;;19.30;42.20;;;;;;5068105;28;19951;-52
2022/04/15 08:42:47;;;;;;;;;;;19.30;42.20;;;;;;5066076;28;19943;-54
2022/04/15 08:45:14;;;;;;;;;;;19.30;42.20;;;;;;5067743;28;20027;-53
2022/04/15 08:47:42;;;;;;;;;;;19.30;42.20;;;;;;5067421;28;20411;-54
2022/04/15 08:50:10;;;;;;;;;;;19.30;42.10;;;;;;5069513;28;20439;-51
2022/04/15 08:52:37;;;;;;;;;;;19.40;42.20;;;;;;5068767;28;19931;-49
2022/04/15 08:55:03;;;;;;;;;;;19.40;42.20;;;;;;5083370;28;19978;-56
2022/04/15 08:57:30;;;;;;;;;;;19.40;42.20;;;;;;5085418;28;19978;-49
2022/04/15 08:59:57;;;;;;;;;;;19.40;42.20;;;;;;5079768;28;20369;-55
2022/04/15 09:02:32;;;;;;;;;;;19.40;42.20;;;;;;5068130;28;19920;-55
2022/04/15 09:05:00;;;;;;;;;;;19.40;42.20;;;;;;5064463;28;19921;-55
2022/04/15 09:07:28;;;;;;;;;;;19.40;42.20;;;;;;5055656;28;20282;-56
2022/04/15 09:09:55;;;;;;;;;;;19.40;42.20;;;;;;5082524;28;19924;-58
2022/04/15 09:12:22;;;;;;;;;;;19.40;42.30;;;;;;5065824;28;20007;-56
2022/04/15 09:14:49;;;;;;;;;;;19.40;42.30;;;;;;5078775;28;19982;-55
2022/04/15 09:17:16;;;;;;;;;;;19.40;42.30;;;;;;5063042;28;19920;-57
2022/04/15 09:19:42;;;;;;;;;;;19.40;42.30;;;;;;5083873;28;19928;-59
2022/04/15 09:22:17;;;;;;;;;;;19.50;42.40;;;;;;5060143;28;20118;-56
2022/04/15 09:24:44;;;;;;;;;;;19.50;42.30;;;;;;5079036;28;19924;-57
2022/04/15 09:27:11;;;;;;;;;;;19.50;42.30;;;;;;5081643;28;19986;-60
2022/04/15 09:29:38;;;;;;;;;;;19.50;42.30;;;;;;5066663;28;19927;-54
2022/04/15 09:32:06;;;;;;;;;;;19.50;42.30;;;;;;5071540;28;20388;-57
2022/04/15 09:34:33;;;;;;;;;;;19.50;42.30;;;;;;5084238;28;19951;-55
2022/04/15 09:37:04;;;;;;;;;;;19.50;42.30;;;;;;5070338;28;19959;-57
2022/04/15 09:39:32;;;;;;;;;;;19.50;42.30;;;;;;5089634;28;19981;-52
2022/04/15 09:42:03;;;;;;;;;;;19.50;42.40;;;;;;5078549;28;19933;-49
2022/04/15 09:44:32;;;;;;;;;;;19.50;42.50;;;;;;5060316;28;19921;-48
2022/04/15 09:47:02;;;;;;;;;;;19.50;42.70;;;;;;5085259;28;19921;-50
2022/04/15 09:49:32;;;;;;;;;;;19.60;43.00;;;;;;5068840;28;19960;-47
2022/04/15 09:51:59;;;;;;;;;;;19.60;43.00;;;;;;5084226;28;20164;-46
2022/04/15 09:54:27;;;;;;;;;;;19.60;43.10;;;;;;5062705;28;19921;-53
2022/04/15 09:56:55;;;;;;;;;;;19.70;43.20;;;;;;5061800;28;19970;-47
2022/04/15 09:59:23;;;;;;;;;;;19.70;43.20;;;;;;5067624;28;19921;-49
2022/04/15 10:01:50;;;;;;;;;;;19.70;43.20;;;;;;5084011;28;20393;-56
2022/04/15 10:04:16;;;;;;;;;;;19.70;43.30;;;;;;5082216;28;19950;-46
2022/04/15 10:06:43;;;;;;;;;;;19.80;43.40;;;;;;5066768;28;20004;-55
2022/04/15 10:09:11;;;;;;;;;;;19.80;43.40;;;;;;5066991;28;19924;-55
2022/04/15 10:11:38;;;;;;;;;;;19.80;43.40;;;;;;5085113;28;19931;-52
2022/04/15 10:14:06;;;;;;;;;;;19.80;43.40;;;;;;5073255;28;19932;-48
2022/04/15 10:16:35;;;;;;;;;;;19.80;43.40;;;;;;5086484;28;19999;-46
2022/04/15 10:19:02;;;;;;;;;;;19.90;43.50;;;;;;5084419;28;19964;-53
2022/04/15 10:21:29;;;;;;;;;;;19.90;43.50;;;;;;5081964;28;20380;-47
2022/04/15 10:23:55;;;;;;;;;;;19.90;43.50;;;;;;5070308;28;20023;-54
2022/04/15 10:26:23;;;;;;;;;;;20.00;43.60;;;;;;5063402;28;19921;-48
2022/04/15 10:28:53;;;;;;;;;;;20.00;43.50;;;;;;5065879;28;20107;-48
2022/04/15 10:31:24;;;;;;;;;;;20.00;43.50;;;;;;5065806;28;19943;-51
2022/04/15 10:33:51;;;;;;;;;;;20.00;43.50;;;;;;5062725;28;19936;-51
2022/04/15 10:36:18;;;;;;;;;;;20.00;43.50;;;;;;5065251;28;19920;-52
2022/04/15 10:39:03;;;;;;;;;;;20.00;43.50;;;;;;5064627;28;19924;-52
2022/04/15 10:41:30;;;;;;;;;;;20.10;43.50;;;;;;5067490;28;19952;-50
2022/04/15 10:43:57;;;;;;;;;;;20.10;43.50;;;;;;5066552;28;20242;-48
2022/04/15 10:46:30;;;;;;;;;;;20.10;43.50;;;;;;5067787;28;19920;-52
2022/04/15 10:48:57;;;;;;;;;;;20.10;43.50;;;;;;5064759;28;19955;-47
2022/04/15 10:51:25;;;;;;;;;;;20.10;43.50;;;;;;5069004;28;20253;-47
2022/04/15 10:53:52;;;;;;;;;;;20.10;43.50;;;;;;5084171;28;19931;-49
2022/04/15 10:56:20;;;;;;;;;;;20.20;43.60;;;;;;5080312;28;19920;-50
2022/04/15 11:01:13;;;;;;;;;;;20.20;43.60;;;;;;5059452;28;19947;-52
2022/04/15 11:01:37;;;;;;;;;;;20.20;43.60;;;;;;5077247;28;19929;-48
2022/04/15 11:04:04;;;;;;;;;;;20.20;43.50;;;;;;5066942;28;19999;-48
2022/04/15 11:06:31;;;;;;;;;;;20.10;43.50;;;;;;5065956;28;19925;-51
2022/04/15 11:08:58;;;;;;;;;;;20.10;43.40;;;;;;5070020;28;20094;-49
2022/04/15 11:11:36;;;;;;;;;;;20.10;43.40;;;;;;5056676;28;19925;-47
2022/04/15 11:14:03;;;;;;;;;;;20.10;43.40;;;;;;5081374;28;19984;-48
2022/04/15 11:16:41;;;;;;;;;;;20.10;43.40;;;;;;5072483;28;20010;-48
2022/04/15 11:19:08;;;;;;;;;;;20.10;43.40;;;;;;5063317;28;19959;-52
2022/04/15 11:21:37;;;;;;;;;;;20.10;43.30;;;;;;5068698;28;19946;-53
2022/04/15 11:24:04;;;;;;;;;;;20.10;43.30;;;;;;5059366;28;20027;-50
2022/04/15 11:26:31;;;;;;;;;;;20.10;43.30;;;;;;5078422;28;19963;-54
2022/04/15 11:28:58;;;;;;;;;;;20.10;43.30;;;;;;5066691;28;19928;-49
2022/04/15 11:31:25;;;;;;;;;;;20.10;43.30;;;;;;5060456;28;19932;-51
2022/04/15 11:33:53;;;;;;;;;;;20.20;43.40;;;;;;5077609;28;20276;-53
2022/04/15 11:36:21;;;;;;;;;;;20.10;43.30;;;;;;5082410;28;19988;-48
2022/04/15 11:38:49;;;;;;;;;;;20.20;43.30;;;;;;5060468;28;20120;-54
2022/04/15 11:41:17;;;;;;;;;;;20.20;43.30;;;;;;5060857;28;20196;-47
2022/04/15 11:43:48;;;;;;;;;;;20.20;43.30;;;;;;5062072;28;19956;-49
2022/04/15 11:46:15;;;;;;;;;;;20.20;43.30;;;;;;5062535;28;20016;-49
2022/04/15 11:48:42;;;;;;;;;;;20.20;43.30;;;;;;5061792;28;19921;-52
2022/04/15 11:51:10;;;;;;;;;;;20.20;43.30;;;;;;5063731;28;19920;-50
2022/04/15 11:53:37;;;;;;;;;;;20.20;43.30;;;;;;5069516;28;19924;-49
2022/04/15 11:56:04;;;;;;;;;;;20.20;43.30;;;;;;5062197;28;20254;-53
2022/04/15 11:58:31;;;;;;;;;;;20.20;43.30;;;;;;5062057;28;19928;-55
2022/04/15 12:00:58;;;;;;;;;;;20.20;43.30;;;;;;5065167;28;20467;-47
2022/04/15 12:03:25;;;;;;;;;;;20.20;43.30;;;;;;5066063;28;19955;-51
2022/04/15 12:05:52;;;;;;;;;;;20.20;43.20;;;;;;5064953;28;20324;-49
2022/04/15 12:08:21;;;;;;;;;;;20.20;43.20;;;;;;5065604;28;19981;-51
2022/04/15 12:10:47;;;;;;;;;;;20.20;43.30;;;;;;5064482;28;19933;-55
2022/04/15 12:13:14;;;;;;;;;;;20.20;43.20;;;;;;5064838;28;19921;-51
2022/04/15 12:15:41;;;;;;;;;;;20.20;43.30;;;;;;5065053;28;20126;-49
2022/04/15 12:18:08;;;;;;;;;;;20.20;43.30;;;;;;5059372;28;19955;-51
2022/04/15 12:20:35;;;;;;;;;;;20.20;43.30;;;;;;5081912;28;19978;-51
2022/04/15 12:23:02;;;;;;;;;;;20.20;43.30;;;;;;5051823;28;19975;-51
2022/04/15 12:26:05;;;;;;;;;;;20.20;43.30;;;;;;5064838;28;19927;-51
2022/04/15 12:31:02;;;;;;;;;;;20.20;43.20;;;;;;5055872;28;19947;-52
2022/04/15 12:33:29;;;;;;;;;;;20.20;43.30;;;;;;5059614;28;20019;-53
2022/04/15 12:36:01;;;;;;;;;;;20.30;43.20;;;;;;5064540;28;19925;-49
2022/04/15 12:38:28;;;;;;;;;;;20.20;43.20;;;;;;5064366;28;19921;-52
2022/04/15 12:41:01;;;;;;;;;;;20.20;43.20;;;;;;5059892;28;19925;-51
2022/04/15 12:43:29;;;;;;;;;;;20.20;43.20;;;;;;5065444;28;19924;-52
2022/04/15 12:45:58;;;;;;;;;;;20.20;43.20;;;;;;5063333;28;20316;-52
2022/04/15 12:48:25;;;;;;;;;;;20.20;43.20;;;;;;5065807;28;19924;-52
2022/04/15 12:50:55;;;;;;;;;;;20.20;43.20;;;;;;5062758;28;20130;-49
2022/04/15 12:53:22;;;;;;;;;;;20.20;43.20;;;;;;5065810;28;19964;-49
2022/04/15 12:55:49;;;;;;;;;;;20.20;43.20;;;;;;5069583;28;19937;-49
2022/04/15 12:58:21;;;;;;;;;;;20.20;43.20;;;;;;5070769;28;19978;-49
2022/04/15 13:00:51;;;;;;;;;;;20.20;43.20;;;;;;5074710;28;19974;-53
2022/04/15 13:03:18;;;;;;;;;;;20.20;43.20;;;;;;5064320;28;19925;-47
2022/04/15 13:05:46;;;;;;;;;;;20.20;43.20;;;;;;5086864;28;20011;-50
2022/04/15 13:08:13;;;;;;;;;;;20.20;43.20;;;;;;5087310;28;19932;-48
2022/04/15 13:10:40;;;;;;;;;;;20.20;43.20;;;;;;5088377;28;19927;-53
2022/04/15 13:13:07;;;;;;;;;;;20.20;43.20;;;;;;5068701;28;20034;-48
2022/04/15 13:15:36;;;;;;;;;;;20.20;43.20;;;;;;5073115;28;19920;-49
2022/04/15 13:18:02;;;;;;;;;;;20.20;43.20;;;;;;5076078;28;19920;-61
2022/04/15 13:20:30;;;;;;;;;;;20.20;43.30;;;;;;5073624;28;19947;-55
2022/04/15 13:22:56;;;;;;;;;;;20.20;43.30;;;;;;5075924;28;20346;-51
2022/04/15 13:25:23;;;;;;;;;;;20.20;43.40;;;;;;5072479;28;20460;-51
2022/04/15 13:27:50;;;;;;;;;;;20.30;43.40;;;;;;5090962;28;19928;-52
2022/04/15 13:30:17;;;;;;;;;;;20.30;43.40;;;;;;5070673;28;20201;-48
2022/04/15 13:32:46;;;;;;;;;;;20.30;43.40;;;;;;5073892;28;19933;-52
2022/04/15 13:35:12;;;;;;;;;;;20.30;43.40;;;;;;5067917;28;19925;-55
2022/04/15 13:37:39;;;;;;;;;;;20.30;43.40;;;;;;5065309;28;19930;-48
2022/04/15 13:40:06;;;;;;;;;;;20.30;43.40;;;;;;5071163;28;19926;-52
2022/04/15 13:42:33;;;;;;;;;;;20.30;43.40;;;;;;5058667;28;19959;-55
2022/04/15 13:45:00;;;;;;;;;;;20.30;43.40;;;;;;5089391;28;19921;-53
2022/04/15 13:47:28;;;;;;;;;;;20.30;43.40;;;;;;5073953;28;19920;-52
2022/04/15 13:49:56;;;;;;;;;;;20.30;43.40;;;;;;5085913;28;20269;-52
2022/04/15 13:57:51;;;;;;;;;;;20.30;43.30;;;;;;5093496;28;19932;-52
2022/04/15 14:00:18;;;;;;;;;;;20.30;43.30;;;;;;5070267;28;19947;-49
2022/04/15 14:02:45;;;;;;;;;;;20.30;43.30;;;;;;5062342;28;19960;-51
2022/04/15 14:05:13;;;;;;;;;;;20.30;43.30;;;;;;5058123;28;19928;-52
2022/04/15 14:07:40;;;;;;;;;;;20.30;43.30;;;;;;5067395;28;19982;-51
2022/04/15 14:10:08;;;;;;;;;;;20.30;43.40;;;;;;5088572;28;19920;-50
2022/04/15 14:12:35;;;;;;;;;;;20.30;43.40;;;;;;5074295;28;19948;-48
2022/04/15 14:15:02;;;;;;;;;;;20.30;44.00;;;;;;5062933;28;19983;-49
2022/04/15 14:17:29;;;;;;;;;;;20.30;43.40;;;;;;5071587;28;19948;-48
2022/04/15 14:19:56;;;;;;;;;;;20.30;43.40;;;;;;5073165;28;19927;-50
2022/04/15 14:22:24;;;;;;;;;;;20.30;43.40;;;;;;5071096;28;19921;-51
2022/04/15 14:24:51;;;;;;;;;;;20.30;43.40;;;;;;5073054;28;19921;-55
2022/04/15 14:27:17;;;;;;;;;;;20.30;43.40;;;;;;5084982;28;20028;-52
2022/04/15 14:29:44;;;;;;;;;;;20.30;43.40;;;;;;5084971;28;19928;-50